CPQ4 weather

CLOSED Lefroy Airport
Lefroy, Ontario, Canada

Public forecast

Using degrees Celsius for public forecast. Weather courtesy of forecast.io.

Closest aviation weather report (METAR) to Lefroy Airport

Closest report is CFB Borden, 15.7 nm (29.2 km) W. Retrieved 2020/06/05 01:00 UTC (1 hour ago):

CYBN 050100Z AUTO 34003KT 9SM CLR 19/13 A2979 RMK SLP087

Closest aviation forecast (TAF) to Lefroy Airport

Forecast is more than 12 hours old.

Closest forecast is CFB Borden, 15.7 nm (29.2 km) W. Retrieved 2020/03/30 12:33 UTC (2 months ago):

TAF TAF CYBN 301130Z 3012/3024 FCST NOT AVBL DUE INSUFFICIENT OBS RMK FCST BASED ON AUTO OBS NXT FCST BY 301800Z